Grays River, Washington
Current Conditions -  °F | °C
As of 12:55 PM on Friday 24 Oct 2014 (Local Time) from KAST Reporting Station
Clear Clear  
Wind Chill: 57°   Ceiling: Unl
Heat Index: 57°   Visibility: 10mi
Dew Point: 51°   Wind: 8mph
Humidity: 81%   Direction: 80°E
Pressure: 29.91"   Gusts: NA
Location:  46.36°N, 123.61°W
Report Text: KAST 241955Z AUTO 08007KT 10SM CLR 14/11 A2991 RMK AO2 SLP129 T01390106
Loading
Personal Weather Stations






























Interactive Weather Map
Tropical Storm Tracking
New forecast layout! Learn more

10-Day Weather Forecast

Advertisements
Track Severe Weather on mobile